KAGC

Allegheny County Airport

Pittsburgh, Pennsylvania, USA
METAR KAGC 201253Z 25007KT 6SM BR OVC006 09/08 A2983 RMK AO2 SLP106 T00890083
Observed Flight Rules
Oct-20 @ 12:53 UTC (21 minutes ago) Instrument Flight Rules
Wind Visibility Clouds Conditions
250° at 7 knots 6 miles
  • Overcast at 600' AGL
  • Mist
Temperatures Readings
Current 9°C / 48°F
Dewpoint 8°C / 46°F
Humidity 94%
Altimeter 29.83" Hg
Pressure 1010.6 hPa
Elevation 389
METAR KAGC 201253Z 25007KT 6SM BR OVC006 09/08 A2983 RMK AO2 SLP106 T00890083
Observed Flight Rules
Oct-20 @ 12:53 UTC
(21 minutes ago)
IFR
Wind Visibility
250° at 7 knots 6 miles
Clouds
  • Overcast at 600' AGL
Conditions
  • Mist
Temperature Dewpoint
9°C / 48°F 8°C / 46°F
Humidity Altimeter Pressure
94% 29.83" Hg 1010.6 hPa